Time;durP1;ratioP1;P1;durP2;ratioP2;P2;SDS_P1;SDS_P2;PMS_P1;PMS_P2;Temp;Humidity;BMP_temperature;BMP_pressure;BME280_temperature;BME280_humidity;BME280_pressure;Samples;Min_cycle;Max_cycle;Signal;HPM_P1;HPM_P2
2022/09/16 00:01:07;;;;;;;;;;;;;;;10.46;100.00;100885.28;5043353;28;20040;-72
2022/09/16 00:03:33;;;;;;;;;;;;;;;10.43;100.00;100886.31;5053213;28;20052;-71
2022/09/16 00:05:59;;;;;;;;;;;;;;;10.40;100.00;100894.31;5055432;28;21227;-72
2022/09/16 00:08:24;;;;;;;;;;;;;;;10.36;100.00;100895.41;5054567;28;19932;-71
2022/09/16 00:10:50;;;;;;;;;;;;;;;10.32;100.00;100892.03;5054277;28;19978;-71
2022/09/16 00:13:15;;;;;;;;;;;;;;;10.30;100.00;100890.38;5053196;28;20511;-71
2022/09/16 00:15:42;;;;;;;;;;;;;;;10.26;100.00;100897.59;5039743;28;20375;-71
2022/09/16 00:18:08;;;;;;;;;;;;;;;10.26;100.00;100899.38;5055349;28;19928;-71
2022/09/16 00:20:33;;;;;;;;;;;;;;;10.24;100.00;100895.94;5057529;28;19931;-71
2022/09/16 00:22:59;;;;;;;;;;;;;;;10.22;100.00;100914.50;5053342;28;19935;-71
2022/09/16 00:25:24;;;;;;;;;;;;;;;10.22;100.00;100932.16;5055465;28;19928;-72
2022/09/16 00:27:49;;;;;;;;;;;;;;;10.24;100.00;100914.44;5036399;28;19989;-72
2022/09/16 00:30:15;;;;;;;;;;;;;;;10.26;100.00;100904.66;5053370;28;19928;-71
2022/09/16 00:32:40;;;;;;;;;;;;;;;10.25;100.00;100895.00;5053857;28;19970;-72
2022/09/16 00:35:06;;;;;;;;;;;;;;;10.26;100.00;100900.25;5054990;28;20025;-72
2022/09/16 00:37:32;;;;;;;;;;;;;;;10.26;100.00;100888.78;5052650;28;20161;-72
2022/09/16 00:39:57;;;;;;;;;;;;;;;10.25;100.00;100881.78;5053517;28;19927;-73
2022/09/16 00:42:23;;;;;;;;;;;;;;;10.25;100.00;100882.63;5039084;28;19994;-72
2022/09/16 00:45:02;;;;;;;;;;;;;;;10.24;100.00;100877.41;5055383;28;19970;-72
2022/09/16 00:47:32;;;;;;;;;;;;;;;10.25;100.00;100874.69;5053131;28;19974;-72
2022/09/16 00:50:00;;;;;;;;;;;;;;;10.24;100.00;100880.91;5045603;28;19935;-72
2022/09/16 00:52:26;;;;;;;;;;;;;;;10.23;100.00;100889.78;5054389;28;19928;-72
2022/09/16 00:54:51;;;;;;;;;;;;;;;10.23;100.00;100894.22;5035520;28;20414;-72
2022/09/16 00:57:16;;;;;;;;;;;;;;;10.23;100.00;100899.50;5052773;28;19928;-72
2022/09/16 00:59:46;;;;;;;;;;;;;;;10.23;100.00;100907.44;5039329;28;21521;-72
2022/09/16 01:02:15;;;;;;;;;;;;;;;10.23;100.00;100900.34;5050721;28;19978;-71
2022/09/16 01:04:43;;;;;;;;;;;;;;;10.21;100.00;100902.22;5052382;28;19979;-71
2022/09/16 01:07:08;;;;;;;;;;;;;;;10.21;100.00;100886.34;5045047;28;19928;-71
2022/09/16 01:09:34;;;;;;;;;;;;;;;10.21;100.00;100875.75;5053442;28;19936;-71
2022/09/16 01:11:59;;;;;;;;;;;;;;;10.19;100.00;100878.47;5037367;28;19928;-71
2022/09/16 01:17:18;;;;;;;;;;;;;;;10.18;100.00;100889.97;5052499;28;19932;-71
2022/09/16 01:19:52;;;;;;;;;;;;;;;10.19;100.00;100885.56;5052187;28;19960;-71
2022/09/16 01:22:18;;;;;;;;;;;;;;;10.16;100.00;100891.84;5054740;28;19977;-72
2022/09/16 01:24:46;;;;;;;;;;;;;;;10.15;100.00;100889.25;5054165;28;19938;-71
2022/09/16 01:27:17;;;;;;;;;;;;;;;10.10;100.00;100884.16;5054376;28;20039;-71
2022/09/16 01:30:01;;;;;;;;;;;;;;;10.06;100.00;100882.56;5054272;28;20010;-71
2022/09/16 01:32:28;;;;;;;;;;;;;;;10.02;100.00;100881.00;5055788;28;19958;-71
2022/09/16 01:35:12;;;;;;;;;;;;;;;9.99;100.00;100887.25;5052643;28;20002;-71
2022/09/16 01:37:46;;;;;;;;;;;;;;;9.96;100.00;100875.97;5055421;28;19990;-71
2022/09/16 01:40:11;;;;;;;;;;;;;;;9.94;100.00;100888.34;5052634;28;19924;-71
2022/09/16 01:42:46;;;;;;;;;;;;;;;9.91;100.00;100882.28;5053421;28;20297;-71
2022/09/16 01:45:19;;;;;;;;;;;;;;;9.89;100.00;100886.78;5036194;28;20295;-71
2022/09/16 01:47:48;;;;;;;;;;;;;;;9.87;100.00;100885.97;5052175;28;20004;-71
2022/09/16 01:50:13;;;;;;;;;;;;;;;9.84;100.00;100901.97;5068447;28;19928;-70
2022/09/16 01:52:42;;;;;;;;;;;;;;;9.81;100.00;100896.81;5032086;28;19986;-71
2022/09/16 01:55:08;;;;;;;;;;;;;;;9.81;100.00;100898.59;5038886;28;20002;-71
2022/09/16 01:57:38;;;;;;;;;;;;;;;9.80;100.00;100899.53;5051956;28;20019;-71
2022/09/16 02:00:05;;;;;;;;;;;;;;;9.80;100.00;100896.88;5053630;28;19936;-71
2022/09/16 02:02:33;;;;;;;;;;;;;;;9.78;100.00;100892.53;5051166;28;19931;-72
2022/09/16 02:04:59;;;;;;;;;;;;;;;9.76;100.00;100880.28;5042810;28;19928;-73
2022/09/16 02:07:26;;;;;;;;;;;;;;;9.76;100.00;100885.56;5052391;28;19924;-72
2022/09/16 02:09:53;;;;;;;;;;;;;;;9.78;100.00;100889.00;5052908;28;21710;-72
2022/09/16 02:12:23;;;;;;;;;;;;;;;9.75;100.00;100879.41;5051373;28;19925;-72
2022/09/16 02:14:48;;;;;;;;;;;;;;;9.73;100.00;100875.13;5051499;28;20003;-71
2022/09/16 02:17:14;;;;;;;;;;;;;;;9.70;100.00;100885.81;5035120;28;20371;-72
2022/09/16 02:19:42;;;;;;;;;;;;;;;9.68;100.00;100880.59;5052174;28;19928;-72
2022/09/16 02:22:11;;;;;;;;;;;;;;;9.68;100.00;100882.38;5051560;28;19928;-72
2022/09/16 02:24:37;;;;;;;;;;;;;;;9.66;100.00;100877.16;5053434;28;19938;-72
2022/09/16 02:27:03;;;;;;;;;;;;;;;9.64;100.00;100866.66;5057220;28;19958;-72
2022/09/16 02:29:36;;;;;;;;;;;;;;;9.64;100.00;100865.78;5031399;28;20023;-72
2022/09/16 02:32:01;;;;;;;;;;;;;;;9.63;100.00;100864.94;5038202;28;19967;-72
2022/09/16 02:34:30;;;;;;;;;;;;;;;9.61;100.00;100872.06;5054985;28;20011;-72
2022/09/16 02:36:56;;;;;;;;;;;;;;;9.58;100.00;100866.91;5054216;28;19928;-72
2022/09/16 02:39:23;;;;;;;;;;;;;;;9.57;100.00;100865.19;5055631;28;20936;-72
2022/09/16 02:41:48;;;;;;;;;;;;;;;9.54;100.00;100870.59;5056280;28;20023;-72
2022/09/16 02:44:14;;;;;;;;;;;;;;;9.54;100.00;100875.00;5056337;28;19936;-71
2022/09/16 02:46:57;;;;;;;;;;;;;;;9.54;100.00;100886.47;5056352;28;19928;-72
2022/09/16 02:49:35;;;;;;;;;;;;;;;9.55;100.00;100887.31;5048532;28;20441;-72
2022/09/16 02:52:00;;;;;;;;;;;;;;;9.55;100.00;100888.19;5056720;28;19925;-72
2022/09/16 02:54:38;;;;;;;;;;;;;;;9.60;100.00;100887.97;5055978;28;19932;-72
2022/09/16 02:57:04;;;;;;;;;;;;;;;9.62;100.00;100884.38;5057587;28;19925;-72
2022/09/16 02:59:30;;;;;;;;;;;;;;;9.65;100.00;100886.88;5057394;28;20023;-72
2022/09/16 03:01:57;;;;;;;;;;;;;;;9.65;100.00;100875.44;5057788;28;19932;-72
2022/09/16 03:04:22;;;;;;;;;;;;;;;9.64;100.00;100886.91;5057918;28;19936;-71
2022/09/16 03:06:48;;;;;;;;;;;;;;;9.62;100.00;100879.06;5057533;28;19925;-72
2022/09/16 03:09:14;;;;;;;;;;;;;;;9.61;100.00;100879.13;5058729;28;19924;-72
2022/09/16 03:11:42;;;;;;;;;;;;;;;9.58;100.00;100876.63;5038690;28;19925;-72
2022/09/16 03:14:14;;;;;;;;;;;;;;;9.55;100.00;100872.31;5058651;28;20015;-72
2022/09/16 03:16:46;;;;;;;;;;;;;;;9.53;100.00;100878.59;5057182;28;19928;-72
2022/09/16 03:19:14;;;;;;;;;;;;;;;9.48;100.00;100886.72;5056182;28;20660;-72
2022/09/16 03:21:43;;;;;;;;;;;;;;;9.40;100.00;100876.44;5057329;28;19928;-72
2022/09/16 03:24:11;;;;;;;;;;;;;;;9.37;100.00;100885.34;5055753;28;19982;-71
2022/09/16 03:26:47;;;;;;;;;;;;;;;9.34;100.00;100882.84;5052756;28;19932;-72
2022/09/16 03:29:16;;;;;;;;;;;;;;;9.35;100.00;100881.91;5056185;28;19928;-72
2022/09/16 03:31:48;;;;;;;;;;;;;;;9.34;100.00;100880.19;5055973;28;19924;-72
2022/09/16 03:34:25;;;;;;;;;;;;;;;9.31;100.00;100875.00;5043972;28;19925;-72
2022/09/16 03:36:55;;;;;;;;;;;;;;;9.31;100.00;100877.66;5055341;28;20025;-71
2022/09/16 03:39:21;;;;;;;;;;;;;;;9.29;100.00;100871.56;5055807;28;19940;-71
2022/09/16 03:41:46;;;;;;;;;;;;;;;9.26;100.00;100871.69;5053843;28;20314;-72
2022/09/16 03:44:12;;;;;;;;;;;;;;;9.25;100.00;100864.69;5055581;28;20310;-72
2022/09/16 03:46:37;;;;;;;;;;;;;;;9.24;100.00;100865.59;5055071;28;19932;-72
2022/09/16 03:49:02;;;;;;;;;;;;;;;9.22;100.00;100867.47;5055801;28;20410;-72
2022/09/16 03:51:28;;;;;;;;;;;;;;;9.21;100.00;100868.38;5052955;28;20245;-72
2022/09/16 03:53:53;;;;;;;;;;;;;;;9.19;100.00;100865.78;5036761;28;19933;-72
2022/09/16 03:56:19;;;;;;;;;;;;;;;9.18;100.00;100868.50;5053342;28;19929;-71
2022/09/16 03:58:46;;;;;;;;;;;;;;;9.17;100.00;100862.38;5055951;28;20387;-72
2022/09/16 04:01:11;;;;;;;;;;;;;;;9.15;100.00;100866.81;5054858;28;19964;-71
2022/09/16 04:03:37;;;;;;;;;;;;;;;9.13;100.00;100866.03;5057116;28;20663;-71
2022/09/16 04:06:02;;;;;;;;;;;;;;;9.12;100.00;100866.09;5058340;28;19928;-72
2022/09/16 04:08:28;;;;;;;;;;;;;;;9.09;100.00;100862.66;5056712;28;20007;-72
2022/09/16 04:10:54;;;;;;;;;;;;;;;9.08;100.00;100863.56;5038634;28;19962;-72
2022/09/16 04:13:20;;;;;;;;;;;;;;;9.08;100.00;100868.84;5054130;28;20379;-72
2022/09/16 04:15:45;;;;;;;;;;;;;;;9.08;100.00;100862.69;5054694;28;19958;-72
2022/09/16 04:18:11;;;;;;;;;;;;;;;9.05;100.00;100863.69;5054181;28;19938;-72
2022/09/16 04:20:36;;;;;;;;;;;;;;;9.03;100.00;100860.25;5039115;28;20323;-72
2022/09/16 04:23:01;;;;;;;;;;;;;;;9.00;100.00;100859.50;5054912;28;20025;-73
2022/09/16 04:25:27;;;;;;;;;;;;;;;8.96;100.00;100858.75;5054407;28;19981;-72
2022/09/16 04:27:52;;;;;;;;;;;;;;;8.91;100.00;100860.72;5053170;28;19928;-72
2022/09/16 04:30:19;;;;;;;;;;;;;;;8.87;100.00;100859.97;5053130;28;20515;-71
2022/09/16 04:32:44;;;;;;;;;;;;;;;8.83;100.00;100859.22;5053611;28;19967;-72
2022/09/16 04:35:10;;;;;;;;;;;;;;;8.80;100.00;100867.28;5052828;28;20746;-72
2022/09/16 04:37:35;;;;;;;;;;;;;;;8.78;100.00;100860.31;5045533;28;19939;-72
2022/09/16 04:40:01;;;;;;;;;;;;;;;8.74;100.00;100856.06;5056038;28;19931;-72
2022/09/16 04:42:26;;;;;;;;;;;;;;;8.68;100.00;100859.81;5052488;28;19925;-72
2022/09/16 04:44:53;;;;;;;;;;;;;;;8.64;100.00;100855.56;5053437;28;20184;-71
2022/09/16 04:47:19;;;;;;;;;;;;;;;8.61;100.00;100858.31;5053081;28;20078;-72
2022/09/16 04:49:44;;;;;;;;;;;;;;;8.57;100.00;100857.56;5054596;28;20367;-71
2022/09/16 04:52:12;;;;;;;;;;;;;;;8.55;100.00;100849.69;5055799;28;19969;-72
2022/09/16 04:54:37;;;;;;;;;;;;;;;8.52;100.00;100855.09;5055836;28;19935;-71
2022/09/16 04:57:03;;;;;;;;;;;;;;;8.51;100.00;100848.09;5053946;28;19936;-72
2022/09/16 04:59:28;;;;;;;;;;;;;;;8.48;100.00;100850.81;5054141;28;20035;-72
2022/09/16 05:01:54;;;;;;;;;;;;;;;8.47;100.00;100846.47;5055095;28;20423;-71
2022/09/16 05:04:19;;;;;;;;;;;;;;;8.48;100.00;100847.31;5050278;28;20592;-72
2022/09/16 05:06:44;;;;;;;;;;;;;;;8.49;100.00;100847.25;5053159;28;21636;-72
2022/09/16 05:09:10;;;;;;;;;;;;;;;8.50;100.00;100853.41;5052357;28;21701;-72
2022/09/16 05:11:37;;;;;;;;;;;;;;;8.49;100.00;100844.63;5052900;28;19932;-72
2022/09/16 05:14:03;;;;;;;;;;;;;;;8.50;100.00;100843.69;5049408;28;19988;-72
2022/09/16 05:16:29;;;;;;;;;;;;;;;8.50;100.00;100848.97;5052533;28;19924;-72
2022/09/16 05:18:56;;;;;;;;;;;;;;;8.53;100.00;100850.69;5050450;28;19935;-72
2022/09/16 05:21:22;;;;;;;;;;;;;;;8.53;100.00;100864.75;5053567;28;19987;-71
2022/09/16 05:23:48;;;;;;;;;;;;;;;8.57;100.00;100857.56;5053145;28;19973;-71
2022/09/16 05:26:17;;;;;;;;;;;;;;;8.58;100.00;100851.38;5052498;28;20395;-72
2022/09/16 05:28:43;;;;;;;;;;;;;;;8.60;100.00;100856.59;5032334;28;20390;-72
2022/09/16 05:31:09;;;;;;;;;;;;;;;8.63;100.00;100851.19;5048212;28;19928;-72
2022/09/16 05:33:34;;;;;;;;;;;;;;;8.66;100.00;100864.28;5053396;28;19940;-71
2022/09/16 05:36:07;;;;;;;;;;;;;;;8.68;100.00;100854.53;5054391;28;19932;-72
2022/09/16 05:38:32;;;;;;;;;;;;;;;8.72;100.00;100861.41;5049740;28;20011;-71
2022/09/16 05:40:58;;;;;;;;;;;;;;;8.76;100.00;100863.03;5051478;28;19916;-72
2022/09/16 05:43:24;;;;;;;;;;;;;;;8.78;100.00;100866.44;5052807;28;19929;-72
2022/09/16 05:45:50;;;;;;;;;;;;;;;8.80;100.00;100867.28;5051471;28;19935;-72
2022/09/16 05:48:16;;;;;;;;;;;;;;;8.84;100.00;100865.38;5055185;28;19931;-72
2022/09/16 05:50:41;;;;;;;;;;;;;;;8.88;100.00;100864.31;5053828;28;20977;-72
2022/09/16 05:53:06;;;;;;;;;;;;;;;8.92;100.00;100865.06;5052801;28;20568;-72
2022/09/16 05:55:32;;;;;;;;;;;;;;;8.94;100.00;100860.63;5052222;28;19939;-72
2022/09/16 05:57:57;;;;;;;;;;;;;;;8.98;100.00;100856.06;5052836;28;19968;-72
2022/09/16 06:00:22;;;;;;;;;;;;;;;9.03;100.00;100854.09;5054497;28;19934;-72
2022/09/16 06:02:50;;;;;;;;;;;;;;;9.12;100.00;100858.16;5057250;28;19958;-72
2022/09/16 06:05:16;;;;;;;;;;;;;;;9.22;100.00;100863.03;5058133;28;19929;-71
2022/09/16 06:07:41;;;;;;;;;;;;;;;9.35;100.00;100865.19;5058344;28;20342;-71
2022/09/16 06:10:06;;;;;;;;;;;;;;;9.45;100.00;100858.63;5056009;28;19929;-72
2022/09/16 06:12:32;;;;;;;;;;;;;;;9.58;100.00;100863.41;5056787;28;20428;-71
2022/09/16 06:14:57;;;;;;;;;;;;;;;9.68;100.00;100866.50;5054758;28;19937;-71
2022/09/16 06:17:22;;;;;;;;;;;;;;;9.79;100.00;100864.28;5058590;28;19991;-72
2022/09/16 06:19:48;;;;;;;;;;;;;;;9.90;100.00;100867.34;5056374;28;20830;-72
2022/09/16 06:22:13;;;;;;;;;;;;;;;10.04;100.00;100869.38;5054389;28;19958;-71
2022/09/16 06:24:39;;;;;;;;;;;;;;;10.19;100.00;100870.53;5056114;28;20397;-72
2022/09/16 06:27:04;;;;;;;;;;;;;;;10.36;100.00;100863.66;5058928;28;20375;-71
2022/09/16 06:29:29;;;;;;;;;;;;;;;10.50;100.00;100865.69;5054168;28;20375;-72
2022/09/16 06:31:55;;;;;;;;;;;;;;;10.57;100.00;100867.13;5055043;28;19928;-71
2022/09/16 06:34:20;;;;;;;;;;;;;;;10.61;100.00;100862.56;5056543;28;19939;-72
2022/09/16 06:36:46;;;;;;;;;;;;;;;10.64;100.00;100865.09;5055794;28;19975;-72
2022/09/16 06:39:12;;;;;;;;;;;;;;;10.70;100.00;100866.59;5055300;28;20654;-72
2022/09/16 06:41:37;;;;;;;;;;;;;;;10.75;100.00;100863.72;5052306;28;19928;-72
2022/09/16 06:44:02;;;;;;;;;;;;;;;10.82;100.00;100871.31;5052834;28;20658;-75
2022/09/16 06:46:28;;;;;;;;;;;;;;;10.91;100.00;100870.03;5056928;28;20163;-73
2022/09/16 06:48:55;;;;;;;;;;;;;;;11.02;100.00;100869.53;5056351;28;19929;-73
2022/09/16 06:51:22;;;;;;;;;;;;;;;11.13;100.00;100869.03;5056636;28;20047;-73
2022/09/16 06:53:47;;;;;;;;;;;;;;;11.19;100.00;100868.75;5055360;28;19981;-73
2022/09/16 06:56:13;;;;;;;;;;;;;;;11.22;100.00;100860.63;5055819;28;19956;-73
2022/09/16 06:58:40;;;;;;;;;;;;;;;11.23;100.00;100859.69;5056933;28;20025;-73
2022/09/16 07:01:06;;;;;;;;;;;;;;;11.25;100.00;100857.84;5057125;28;19927;-73
2022/09/16 07:03:32;;;;;;;;;;;;;;;11.30;100.00;100856.75;5055239;28;19928;-73
2022/09/16 07:06:00;;;;;;;;;;;;;;;11.36;100.00;100856.47;5055795;28;19929;-73
2022/09/16 07:08:30;;;;;;;;;;;;;;;11.42;100.00;100853.50;5056390;28;19928;-73
2022/09/16 07:11:03;;;;;;;;;;;;;;;11.47;100.00;100850.63;5051485;28;20464;-73
2022/09/16 07:13:28;;;;;;;;;;;;;;;11.52;100.00;100849.50;5057292;28;19929;-72
2022/09/16 07:15:57;;;;;;;;;;;;;;;11.57;100.00;100851.91;5056725;28;19947;-73
2022/09/16 07:18:23;;;;;;;;;;;;;;;11.62;100.00;100847.25;5042208;28;20022;-72
2022/09/16 07:20:48;;;;;;;;;;;;;;;11.70;100.00;100853.94;5056323;28;19929;-73
2022/09/16 07:23:13;;;;;;;;;;;;;;;11.75;100.00;100855.44;5057815;28;19986;-73
2022/09/16 07:25:39;;;;;;;;;;;;;;;11.81;100.00;100863.06;5043501;28;19943;-72
2022/09/16 07:28:04;;;;;;;;;;;;;;;11.90;100.00;100874.16;5057338;28;19981;-72
2022/09/16 07:30:30;;;;;;;;;;;;;;;11.99;100.00;100865.72;5053870;28;19933;-72
2022/09/16 07:32:55;;;;;;;;;;;;;;;12.07;100.00;100866.25;5051326;28;19933;-72
2022/09/16 07:35:21;;;;;;;;;;;;;;;12.16;100.00;100872.00;5052658;28;19932;-72
2022/09/16 07:37:46;;;;;;;;;;;;;;;12.28;100.00;100879.34;5053044;28;20351;-72
2022/09/16 07:40:12;;;;;;;;;;;;;;;12.40;100.00;100871.63;5047325;28;19932;-72
2022/09/16 07:42:37;;;;;;;;;;;;;;;12.53;100.00;100875.38;5054957;28;19939;-72
2022/09/16 07:45:03;;;;;;;;;;;;;;;12.72;100.00;100887.66;5054683;28;19936;-72
2022/09/16 07:47:28;;;;;;;;;;;;;;;12.92;100.00;100872.44;5054198;28;19928;-72
2022/09/16 07:49:54;;;;;;;;;;;;;;;12.83;100.00;100879.97;5064572;28;19928;-72
2022/09/16 07:52:21;;;;;;;;;;;;;;;12.60;100.00;100878.56;5056094;28;20377;-73
2022/09/16 07:54:47;;;;;;;;;;;;;;;12.40;100.00;100892.88;5054430;28;20673;-73
2022/09/16 07:57:13;;;;;;;;;;;;;;;12.26;100.00;100886.50;5054824;28;19932;-72
2022/09/16 07:59:38;;;;;;;;;;;;;;;12.20;100.00;100885.03;5053266;28;19974;-74
2022/09/16 08:02:04;;;;;;;;;;;;;;;12.24;100.00;100890.19;5069753;28;19923;-73
2022/09/16 08:04:29;;;;;;;;;;;;;;;12.28;100.00;100889.94;5056712;28;19993;-73
2022/09/16 08:06:55;;;;;;;;;;;;;;;12.36;100.00;100885.09;5023785;28;19982;-72
2022/09/16 08:09:21;;;;;;;;;;;;;;;12.41;100.00;100889.31;5056139;28;19925;-72
2022/09/16 08:11:47;;;;;;;;;;;;;;;12.41;100.00;100891.97;5057009;28;20566;-72
2022/09/16 08:14:13;;;;;;;;;;;;;;;12.41;100.00;100889.31;5056000;28;20027;-72
2022/09/16 08:16:38;;;;;;;;;;;;;;;12.43;100.00;100887.44;5052801;28;19950;-72
2022/09/16 08:19:03;;;;;;;;;;;;;;;12.46;100.00;100879.28;5056243;28;19937;-72
2022/09/16 08:21:30;;;;;;;;;;;;;;;12.51;100.00;100895.84;5052785;28;20657;-72
2022/09/16 08:23:55;;;;;;;;;;;;;;;12.58;97.56;100891.06;5053241;28;19951;-73
2022/09/16 08:27:14;;;;;;;;;;;;;;;12.66;96.50;100893.31;5045973;28;20646;-73
2022/09/16 08:29:23;;;;;;;;;;;;;;;12.70;96.38;100887.75;5038948;28;20295;-72
2022/09/16 08:31:49;;;;;;;;;;;;;;;12.78;93.96;100882.03;5010885;28;19936;-72
2022/09/16 08:34:15;;;;;;;;;;;;;;;12.84;92.35;100888.78;5030184;28;20470;-72
2022/09/16 08:36:41;;;;;;;;;;;;;;;12.89;92.70;100895.59;5042674;28;19932;-72
2022/09/16 08:39:06;;;;;;;;;;;;;;;12.95;93.24;100893.53;5032795;28;19924;-72
2022/09/16 08:41:44;;;;;;;;;;;;;;;12.98;93.15;100888.06;5044727;28;19943;-73
2022/09/16 08:44:18;;;;;;;;;;;;;;;13.07;94.45;100887.53;5029468;28;20042;-72
2022/09/16 08:47:02;;;;;;;;;;;;;;;13.16;94.01;100887.03;5045009;28;20030;-72
2022/09/16 08:49:35;;;;;;;;;;;;;;;13.25;93.73;100887.47;5048879;28;20598;-72
2022/09/16 08:52:02;;;;;;;;;;;;;;;13.31;93.88;100895.09;5053338;28;19932;-74
2022/09/16 08:54:39;;;;;;;;;;;;;;;13.33;93.52;100887.88;5037867;28;19940;-74
2022/09/16 08:57:05;;;;;;;;;;;;;;;13.38;91.83;100891.16;5050230;28;19932;-75
2022/09/16 08:59:35;;;;;;;;;;;;;;;13.46;91.99;100882.78;5042612;28;20388;-75
2022/09/16 09:02:03;;;;;;;;;;;;;;;13.52;91.90;100886.88;5032641;28;19936;-75
2022/09/16 09:07:51;;;;;;;;;;;;;;;13.66;88.82;100888.72;4910862;28;20423;-75
2022/09/16 09:10:43;;;;;;;;;;;;;;;;;;;;;
2022/09/16 09:53:19;;;;;;;;;;;;;;;14.44;85.32;100914.31;4956265;28;20008;-70
2022/09/16 09:55:45;;;;;;;;;;;;;;;14.40;78.95;100904.81;5018557;28;19928;-70
2022/09/16 09:58:25;;;;;;;;;;;;;;;14.25;82.19;100896.81;5059065;28;19936;-70
2022/09/16 10:00:57;;;;;;;;;;;;;;;14.15;83.50;100903.63;5049138;28;19936;-70
2022/09/16 10:03:23;;;;;;;;;;;;;;;14.11;85.28;100902.13;5049491;28;20464;-71
2022/09/16 10:05:48;;;;;;;;;;;;;;;14.07;85.99;100900.56;5047134;28;19932;-71
2022/09/16 10:08:14;;;;;;;;;;;;;;;14.00;85.33;100897.41;5049957;28;20414;-71
2022/09/16 10:10:58;;;;;;;;;;;;;;;13.93;83.10;100907.56;5045930;28;19931;-71
2022/09/16 10:13:25;;;;;;;;;;;;;;;13.91;84.13;100905.94;5049559;28;20480;-71
2022/09/16 10:15:54;;;;;;;;;;;;;;;13.94;80.82;100919.09;5026070;28;19928;-70
2022/09/16 10:18:24;;;;;;;;;;;;;;;13.93;79.60;100914.69;5045590;28;19931;-70
2022/09/16 10:21:02;;;;;;;;;;;;;;;13.92;81.90;100911.19;5046325;28;19961;-73
2022/09/16 10:23:28;;;;;;;;;;;;;;;13.95;83.50;100907.47;5046258;28;19929;-74
2022/09/16 10:26:13;;;;;;;;;;;;;;;14.07;82.93;100913.88;5046021;28;19928;-74
2022/09/16 10:28:39;;;;;;;;;;;;;;;14.21;81.12;100915.69;5037900;28;19928;-72
2022/09/16 10:31:05;;;;;;;;;;;;;;;14.30;83.15;100904.53;5048332;28;19931;-73
2022/09/16 10:33:31;;;;;;;;;;;;;;;14.41;83.38;100898.53;5048165;28;19924;-73
2022/09/16 10:35:59;;;;;;;;;;;;;;;14.45;81.24;100908.06;5039637;28;20058;-72
2022/09/16 10:38:44;;;;;;;;;;;;;;;14.41;81.97;100901.22;5048298;28;19940;-73
2022/09/16 10:41:14;;;;;;;;;;;;;;;14.43;79.13;100904.63;5047666;28;19964;-73
2022/09/16 10:43:45;;;;;;;;;;;;;;;14.49;79.72;100909.56;5047466;28;19935;-73
2022/09/16 10:46:12;;;;;;;;;;;;;;;14.48;77.97;100907.88;5049430;28;20467;-73
2022/09/16 10:48:39;;;;;;;;;;;;;;;14.52;79.80;100903.22;5049639;28;19929;-73
2022/09/16 10:51:05;;;;;;;;;;;;;;;14.43;80.46;100907.28;5024945;28;20003;-73
2022/09/16 10:53:37;;;;;;;;;;;;;;;14.31;80.51;100900.03;5050648;28;20744;-74
2022/09/16 10:56:14;;;;;;;;;;;;;;;14.25;79.11;100902.13;5050611;28;19964;-73
2022/09/16 10:58:40;;;;;;;;;;;;;;;14.26;77.86;100914.50;5051063;28;20523;-73
2022/09/16 11:01:05;;;;;;;;;;;;;;;14.33;79.69;100904.31;5054024;28;19935;-73
2022/09/16 11:03:34;;;;;;;;;;;;;;;14.40;78.82;100910.16;5050862;28;20027;-73
2022/09/16 11:06:18;;;;;;;;;;;;;;;14.46;80.99;100916.91;5053907;28;19992;-74
2022/09/16 11:09:07;;;;;;;;;;;;;;;14.54;80.79;100914.63;5048524;28;19935;-74
2022/09/16 11:11:38;;;;;;;;;;;;;;;14.64;79.70;100902.47;5031554;28;19932;-74
2022/09/16 11:14:23;;;;;;;;;;;;;;;14.69;76.97;100899.50;5050661;28;21390;-74
2022/09/16 11:16:55;;;;;;;;;;;;;;;14.80;77.86;100891.75;5051294;28;19935;-74
2022/09/16 11:19:27;;;;;;;;;;;;;;;14.99;78.43;100898.56;5048725;28;19932;-74
2022/09/16 11:22:12;;;;;;;;;;;;;;;15.19;79.51;100899.97;5051376;28;20361;-74
2022/09/16 11:24:41;;;;;;;;;;;;;;;15.31;80.13;100911.66;5051506;28;20430;-74
2022/09/16 11:27:12;;;;;;;;;;;;;;;15.16;81.22;100912.63;5066290;28;19990;-74
2022/09/16 11:29:44;;;;;;;;;;;;;;;14.83;81.46;100922.69;5050871;28;20295;-74
2022/09/16 11:32:22;;;;;;;;;;;;;;;14.60;80.39;100905.41;5050568;28;19936;-74
2022/09/16 11:34:48;;;;;;;;;;;;;;;14.57;81.30;100908.25;5050863;28;19932;-74
2022/09/16 11:37:19;;;;;;;;;;;;;;;14.69;81.53;100893.31;5051953;28;19925;-74
2022/09/16 11:39:47;;;;;;;;;;;;;;;14.87;79.54;100896.69;5048614;28;19931;-73
2022/09/16 11:42:33;;;;;;;;;;;;;;;15.00;78.14;100892.28;5050307;28;19924;-74
2022/09/16 11:45:17;;;;;;;;;;;;;;;15.18;77.09;100897.38;5047866;28;20027;-74
2022/09/16 11:48:03;;;;;;;;;;;;;;;15.23;75.63;100895.28;5067806;28;19984;-74
2022/09/16 11:50:32;;;;;;;;;;;;;;;15.30;75.53;100901.94;5049502;28;19936;-74
2022/09/16 11:53:16;;;;;;;;;;;;;;;15.34;77.18;100898.13;5031349;28;19981;-74
2022/09/16 11:55:48;;;;;;;;;;;;;;;15.40;77.57;100880.00;5048555;28;20532;-74
2022/09/16 11:58:13;;;;;;;;;;;;;;;15.47;78.02;100889.31;5050015;28;19955;-74
2022/09/16 12:00:39;;;;;;;;;;;;;;;15.57;75.42;100910.91;5065201;28;20003;-74
2022/09/16 12:03:09;;;;;;;;;;;;;;;15.53;72.73;100906.75;5049697;28;20394;-76
2022/09/16 12:05:48;;;;;;;;;;;;;;;15.26;75.96;100910.25;5049243;28;20026;-75
2022/09/16 12:08:32;;;;;;;;;;;;;;;15.02;76.39;100902.84;5032207;28;20284;-75
2022/09/16 12:11:05;;;;;;;;;;;;;;;14.88;74.87;100904.56;5031441;28;19932;-73
2022/09/16 12:13:54;;;;;;;;;;;;;;;14.88;74.62;100898.41;5033082;28;19976;-75
2022/09/16 12:16:33;;;;;;;;;;;;;;;14.91;77.71;100903.53;5027061;28;20638;-72
2022/09/16 12:19:00;;;;;;;;;;;;;;;14.96;76.38;100893.44;5032723;28;20382;-72
2022/09/16 12:21:27;;;;;;;;;;;;;;;15.11;78.58;100901.41;5048002;28;19928;-71
2022/09/16 12:23:56;;;;;;;;;;;;;;;15.28;76.59;100894.97;5035726;28;20034;-72
2022/09/16 12:26:27;;;;;;;;;;;;;;;15.47;76.00;100884.84;5055539;28;19924;-72
2022/09/16 12:29:01;;;;;;;;;;;;;;;15.61;73.96;100894.59;5054480;28;20231;-72
2022/09/16 12:31:53;;;;;;;;;;;;;;;15.69;75.96;100871.91;5053151;28;19966;-72
2022/09/16 12:34:19;;;;;;;;;;;;;;;15.61;74.18;100883.94;5052237;28;21684;-72
2022/09/16 12:36:47;;;;;;;;;;;;;;;15.49;74.04;100882.06;5052631;28;19935;-72
2022/09/16 12:39:12;;;;;;;;;;;;;;;15.41;72.86;100889.72;5070090;28;20556;-72
2022/09/16 12:41:38;;;;;;;;;;;;;;;15.39;74.82;100902.28;5054229;28;19933;-72
2022/09/16 12:44:13;;;;;;;;;;;;;;;15.36;73.40;100895.34;5053596;28;19928;-72
2022/09/16 12:46:47;;;;;;;;;;;;;;;15.33;74.21;100888.41;5049222;28;19928;-71
2022/09/16 12:49:30;;;;;;;;;;;;;;;15.34;75.19;100867.91;5054399;28;19930;-71
2022/09/16 12:52:02;;;;;;;;;;;;;;;15.31;76.58;100884.97;5046939;28;19932;-71
2022/09/16 12:54:46;;;;;;;;;;;;;;;15.38;75.63;100873.91;5052326;28;20010;-71
2022/09/16 12:57:24;;;;;;;;;;;;;;;15.44;76.26;100878.84;5054201;28;19936;-71
2022/09/16 13:00:08;;;;;;;;;;;;;;;15.51;75.55;100881.97;5054077;28;19967;-70
2022/09/16 13:02:35;;;;;;;;;;;;;;;15.52;75.20;100883.69;5055755;28;19924;-71
2022/09/16 13:05:03;;;;;;;;;;;;;;;15.52;76.49;100879.19;5053002;28;19932;-72
2022/09/16 13:07:31;;;;;;;;;;;;;;;15.52;73.22;100878.34;5053561;28;20304;-72
2022/09/16 13:10:06;;;;;;;;;;;;;;;15.46;72.54;100884.94;5053032;28;19921;-71
2022/09/16 13:12:32;;;;;;;;;;;;;;;15.44;74.78;100889.50;5044555;28;19991;-72
2022/09/16 13:15:01;;;;;;;;;;;;;;;15.48;74.33;100883.88;5033036;28;19953;-72
2022/09/16 13:17:36;;;;;;;;;;;;;;;15.51;74.50;100881.97;5047664;28;19932;-71
2022/09/16 13:20:22;;;;;;;;;;;;;;;15.50;73.67;100882.91;5045544;28;20011;-71
2022/09/16 13:23:04;;;;;;;;;;;;;;;15.37;77.40;100882.88;5046824;28;19928;-72
2022/09/16 13:25:35;;;;;;;;;;;;;;;15.16;78.74;100870.81;5047493;28;19932;-72
2022/09/16 13:28:02;;;;;;;;;;;;;;;15.06;77.14;100877.72;5048743;28;19928;-71
2022/09/16 13:30:27;;;;;;;;;;;;;;;15.04;77.72;100877.78;5035507;28;19924;-71